Ridgeway, Michigan
Current Conditions -  °F | °C
As of 3:53 AM on Sunday 26 Oct 2014 (Local Time) from KADG Reporting Station
Clear Clear  
Wind Chill: 42°   Ceiling: Unl
Heat Index: 46°   Visibility: 10mi
Dew Point: 31°   Wind: 7mph
Humidity: 56%   Direction: 300°WNW
Pressure: 29.9"   Gusts: NA
Location:  41.99°N, 83.86°W
Report Text: KADG 260753Z AUTO 30006KT 10SM CLR 08/M01 A2990 RMK AO2 SLP126 T00781006
Loading
Personal Weather Stations






























Interactive Weather Map
Tropical Storm Tracking
New forecast layout! Learn more

10-Day Weather Forecast

Advertisements
Track Severe Weather on mobile